Time;durP1;ratioP1;P1;durP2;ratioP2;P2;SDS_P1;SDS_P2;PMS_P1;PMS_P2;Temp;Humidity;BMP_temperature;BMP_pressure;BME280_temperature;BME280_humidity;BME280_pressure;Samples;Min_cycle;Max_cycle;Signal;HPM_P1;HPM_P2
2022/06/05 00:01:43;;;;;;;0.10;0.10;;;;;;;21.28;43.81;101335.28;5111380;28;20057;-33
2022/06/05 00:04:29;;;;;;;0.10;0.10;;;;;;;21.28;43.78;101335.28;5128853;28;20051;-34
2022/06/05 00:07:04;;;;;;;0.10;0.10;;;;;;;21.29;44.03;101353.59;5112161;28;20054;-33
2022/06/05 00:09:39;;;;;;;0.10;0.10;;;;;;;21.29;43.75;101340.56;5127507;28;20043;-35
2022/06/05 00:12:09;;;;;;;0.10;0.10;;;;;;;21.29;43.83;101336.97;5130145;28;20050;-33
2022/06/05 00:14:39;;;;;;;0.10;0.10;;;;;;;21.27;43.81;101328.91;5128962;28;20081;-33
2022/06/05 00:17:09;;;;;;;0.10;0.10;;;;;;;21.28;44.00;101327.78;5130013;28;20584;-34
2022/06/05 00:19:37;;;;;;;0.10;0.10;;;;;;;21.29;43.86;101331.41;5128211;28;20078;-34
2022/06/05 00:22:03;;;;;;;0.10;0.10;;;;;;;21.28;43.86;101319.47;5129626;28;20070;-33
2022/06/05 00:24:29;;;;;;;0.10;0.10;;;;;;;21.30;43.87;101330.31;5128668;27;20186;-33
2022/06/05 00:27:18;;;;;;;0.10;0.10;;;;;;;21.29;43.94;101323.94;5128898;28;20499;-33
2022/06/05 00:29:56;;;;;;;0.10;0.10;;;;;;;21.29;43.86;101325.88;5112214;28;20042;-33
2022/06/05 00:32:40;;;;;;;0.10;0.10;;;;;;;21.29;43.79;101321.16;5131353;27;20085;-34
2022/06/05 00:35:07;;;;;;;0.10;0.10;;;;;;;21.29;43.79;101306.50;5129243;28;20085;-33
2022/06/05 00:37:50;;;;;;;0.10;0.10;;;;;;;21.28;44.08;101313.94;5127895;28;20042;-33
2022/06/05 00:40:31;;;;;;;0.10;0.10;;;;;;;21.28;43.86;101304.81;5129807;28;20043;-33
2022/06/05 00:42:58;;;;;;;0.10;0.10;;;;;;;21.29;43.88;101307.31;5127849;28;20782;-33
2022/06/05 00:45:26;;;;;;;0.10;0.10;;;;;;;21.29;43.87;101309.25;5111541;28;20509;-34
2022/06/05 00:47:51;;;;;;;0.10;0.10;;;;;;;21.28;43.84;101302.88;5106448;28;20087;-33
2022/06/05 00:50:23;;;;;;;0.10;0.10;;;;;;;21.28;43.97;101311.16;5129554;28;20389;-34
2022/06/05 00:52:53;;;;;;;0.10;0.10;;;;;;;21.29;44.03;101306.50;5129488;28;20071;-34
2022/06/05 00:55:19;;;;;;;0.10;0.10;;;;;;;21.29;44.02;101303.72;5130501;28;20086;-33
2022/06/05 00:57:46;;;;;;;0.10;0.10;;;;;;;21.29;43.99;101292.63;5109648;28;20039;-33
2022/06/05 01:00:16;;;;;;;0.10;0.10;;;;;;;21.29;44.04;101292.63;5129349;28;20090;-33
2022/06/05 01:02:43;;;;;;;0.10;0.10;;;;;;;21.28;43.84;101294.56;5093490;28;20080;-33
2022/06/05 01:05:12;;;;;;;0.10;0.10;;;;;;;21.29;43.88;101285.16;5110045;28;20526;-32
2022/06/05 01:07:38;;;;;;;0.10;0.10;;;;;;;21.28;43.96;101277.09;5128182;28;20074;-32
2022/06/05 01:10:05;;;;;;;0.10;0.10;;;;;;;21.28;43.88;101275.16;5128910;28;20393;-33
2022/06/05 01:12:44;;;;;;;0.10;0.10;;;;;;;21.27;43.81;101273.50;5131024;28;20147;-33
2022/06/05 01:18:01;;;;;;;0.17;0.17;;;;;;;21.29;44.00;101282.38;5176836;27;20257;-34
2022/06/05 01:20:34;;;;;;;0.10;0.10;;;;;;;21.28;43.92;101275.16;5168699;27;20081;-34
2022/06/05 01:23:39;;;;;;;0.10;0.10;;;;;;;21.30;43.95;101266.59;5167740;27;20130;-34
2022/06/05 01:26:12;;;;;;;0.10;0.10;;;;;;;21.28;43.76;101254.94;5132475;27;20053;-33
2022/06/05 01:28:42;;;;;;;0.10;0.10;;;;;;;21.27;43.86;101259.66;5166382;27;20074;-34
2022/06/05 01:31:14;;;;;;;0.10;0.10;;;;;;;21.28;43.87;101255.78;5169275;27;20074;-34
2022/06/05 01:33:48;;;;;;;0.10;0.10;;;;;;;21.28;43.85;101241.91;5167481;27;20074;-34
2022/06/05 01:36:17;;;;;;;0.10;0.10;;;;;;;21.28;43.85;101239.16;5166266;27;20085;-33
2022/06/05 01:38:57;;;;;;;0.10;0.10;;;;;;;21.28;44.03;101238.31;5165997;27;20074;-33
2022/06/05 01:41:27;;;;;;;0.10;0.10;;;;;;;21.28;43.88;101241.91;5140608;27;20062;-34
2022/06/05 01:43:54;;;;;;;0.10;0.10;;;;;;;21.28;43.92;101230.00;5144754;27;20464;-34
2022/06/05 01:46:23;;;;;;;0.10;0.10;;;;;;;21.29;44.04;101220.63;5126740;27;20051;-33
2022/06/05 01:48:58;;;;;;;0.30;0.30;;;;;;;21.28;43.94;101218.94;5140464;27;20051;-34
2022/06/05 01:51:29;;;;;;;0.10;0.10;;;;;;;21.28;44.03;101219.75;5144788;27;20074;-33
2022/06/05 01:53:57;;;;;;;0.10;0.10;;;;;;;21.28;43.86;101216.16;5146725;27;20127;-34
2022/06/05 01:56:34;;;;;;;0.10;0.10;;;;;;;21.29;43.96;101206.75;5146216;27;20174;-33
2022/06/05 01:59:07;;;;;;;0.10;0.10;;;;;;;21.27;43.84;101207.03;5144050;27;20070;-34
2022/06/05 02:01:37;;;;;;;0.10;0.10;;;;;;;21.27;43.94;101209.81;5145027;27;20058;-34
2022/06/05 02:04:11;;;;;;;0.10;0.10;;;;;;;21.29;43.97;101209.53;5144820;27;20130;-33
2022/06/05 02:06:42;;;;;;;0.10;0.10;;;;;;;21.28;43.91;101194.00;5143183;27;20090;-34
2022/06/05 02:09:19;;;;;;;0.10;0.10;;;;;;;21.28;43.88;101197.59;5145397;27;20038;-33
2022/06/05 02:11:45;;;;;;;0.10;0.10;;;;;;;21.29;43.91;101192.91;5146043;27;20086;-34
2022/06/05 02:14:11;;;;;;;0.10;0.10;;;;;;;21.28;43.99;101197.59;5145574;27;20119;-34
2022/06/05 02:16:39;;;;;;;0.10;0.10;;;;;;;21.28;44.03;101183.75;5142332;27;20078;-34
2022/06/05 02:19:09;;;;;;;0.10;0.10;;;;;;;21.28;43.95;101166.31;5126606;27;20047;-34
2022/06/05 02:21:37;;;;;;;0.10;0.10;;;;;;;21.27;43.94;101156.34;5145895;27;20075;-33
2022/06/05 02:24:04;;;;;;;0.10;0.10;;;;;;;21.27;44.01;101157.16;5125218;27;20046;-33
2022/06/05 02:26:30;;;;;;;0.10;0.10;;;;;;;21.27;44.17;101140.56;5143982;27;20165;-33
2022/06/05 02:28:56;;;;;;;0.10;0.10;;;;;;;21.27;44.06;101135.00;5132732;27;20174;-34
2022/06/05 02:31:46;;;;;;;0.10;0.10;;;;;;;21.29;43.95;101130.03;5131734;28;20092;-34
2022/06/05 02:37:09;;;;;;;0.10;0.10;;;;;;;21.27;43.99;101112.84;5177289;27;20197;-33
2022/06/05 02:39:49;;;;;;;0.10;0.10;;;;;;;21.28;43.91;101103.41;5144194;27;20080;-34
2022/06/05 02:42:43;;;;;;;0.10;0.10;;;;;;;21.29;43.91;101099.56;5151878;27;20441;-34
2022/06/05 02:45:32;;;;;;;0.10;0.10;;;;;;;21.27;43.96;101092.63;5136111;27;20050;-34
2022/06/05 02:48:08;;;;;;;0.10;0.10;;;;;;;21.29;43.88;101095.97;5129501;27;20077;-34
2022/06/05 02:50:56;;;;;;;0.10;0.10;;;;;;;21.28;43.84;101081.25;5151826;27;20082;-34
2022/06/05 02:53:21;;;;;;;0.10;0.10;;;;;;;21.27;44.11;101076.84;5136923;27;20130;-34
2022/06/05 02:55:47;;;;;;;0.10;0.10;;;;;;;21.28;44.02;101070.19;5149003;27;20051;-33
2022/06/05 02:58:13;;;;;;;0.10;0.10;;;;;;;21.28;43.93;101072.13;5150570;27;20051;-33
2022/06/05 03:00:39;;;;;;;0.10;0.10;;;;;;;21.28;43.93;101055.50;5153092;27;20082;-33
2022/06/05 03:03:37;;;;;;;0.10;0.10;;;;;;;21.28;43.85;101058.28;5151121;27;20043;-33
2022/06/05 03:05:51;;;;;;;0.15;0.15;;;;;;;21.27;44.06;101051.09;5124586;27;20039;-33
2022/06/05 03:08:19;;;;;;;0.10;0.10;;;;;;;21.27;43.83;101049.13;5152874;27;20045;-33
2022/06/05 03:10:45;;;;;;;0.10;0.10;;;;;;;21.27;43.83;101051.09;5154872;27;20042;-34
2022/06/05 03:13:11;;;;;;;0.10;0.10;;;;;;;21.27;44.11;101040.84;5154208;27;20047;-35
2022/06/05 03:15:38;;;;;;;0.10;0.10;;;;;;;21.27;43.95;101043.59;5152614;27;20076;-33
2022/06/05 03:18:04;;;;;;;0.10;0.10;;;;;;;21.27;43.94;101049.13;5153960;27;20042;-33
2022/06/05 03:20:30;;;;;;;0.10;0.10;;;;;;;21.29;43.99;101059.94;5156782;27;20039;-33
2022/06/05 03:22:55;;;;;;;0.10;0.10;;;;;;;21.28;43.94;101058.28;5130904;27;20049;-33
2022/06/05 03:25:23;;;;;;;0.10;0.10;;;;;;;21.28;43.93;101053.56;5151618;27;20407;-33
2022/06/05 03:27:49;;;;;;;0.10;0.10;;;;;;;21.28;43.96;101059.09;5153158;27;20414;-33
2022/06/05 03:30:15;;;;;;;0.10;0.10;;;;;;;21.27;43.91;101057.44;5149158;27;20077;-33
2022/06/05 03:32:42;;;;;;;0.10;0.10;;;;;;;21.27;43.88;101049.13;5129900;27;20095;-33
2022/06/05 03:35:09;;;;;;;0.10;0.10;;;;;;;21.28;44.09;101059.09;5128736;27;20046;-33
2022/06/05 03:37:34;;;;;;;0.10;0.10;;;;;;;21.28;43.94;101050.78;5146725;27;20134;-33
2022/06/05 03:40:00;;;;;;;0.10;0.10;;;;;;;21.28;43.96;101053.56;5155841;27;20437;-33
2022/06/05 03:42:26;;;;;;;0.20;0.20;;;;;;;21.27;43.96;101040.84;5137934;27;20058;-33
2022/06/05 03:44:51;;;;;;;0.10;0.10;;;;;;;21.27;43.99;101043.59;5135052;27;20070;-34
2022/06/05 03:47:17;;;;;;;0.20;0.20;;;;;;;21.28;44.01;101039.69;5127642;27;20051;-33
2022/06/05 03:49:43;;;;;;;0.10;0.10;;;;;;;21.26;43.90;101039.19;5118609;28;20047;-33
2022/06/05 03:52:10;;;;;;;0.10;0.10;;;;;;;21.27;44.00;101038.06;5120871;28;20039;-33
2022/06/05 03:54:37;;;;;;;0.20;0.20;;;;;;;21.26;43.95;101041.97;5119232;28;20144;-32
2022/06/05 03:57:04;;;;;;;0.10;0.10;;;;;;;21.27;43.97;101040.84;5123114;28;20534;-33
2022/06/05 03:59:30;;;;;;;0.10;0.10;;;;;;;21.27;43.95;101049.13;5122865;28;20044;-33
2022/06/05 04:01:55;;;;;;;0.10;0.10;;;;;;;21.27;44.11;101046.38;5123833;28;20103;-33
2022/06/05 04:04:21;;;;;;;0.10;0.10;;;;;;;21.28;43.85;101049.97;5119388;28;20100;-33
2022/06/05 04:06:48;;;;;;;0.10;0.10;;;;;;;21.28;43.86;101053.56;5118041;28;20054;-34
2022/06/05 04:09:13;;;;;;;0.10;0.10;;;;;;;21.27;43.95;101051.91;5122525;28;20046;-33
2022/06/05 04:11:40;;;;;;;0.10;0.10;;;;;;;21.27;44.05;101048.31;5123142;28;20127;-33
2022/06/05 04:14:07;;;;;;;0.10;0.10;;;;;;;21.28;43.89;101052.72;5121735;28;20059;-33
2022/06/05 04:16:34;;;;;;;0.10;0.10;;;;;;;21.28;44.01;101042.47;5100085;27;20073;-34
2022/06/05 04:19:01;;;;;;;0.10;0.10;;;;;;;21.27;44.11;101042.78;5099435;28;20078;-33
2022/06/05 04:21:28;;;;;;;0.10;0.10;;;;;;;21.27;43.95;101040.84;5120413;28;20051;-33
2022/06/05 04:23:55;;;;;;;0.10;0.10;;;;;;;21.27;44.14;101049.13;5116546;28;20478;-33
2022/06/05 04:26:23;;;;;;;0.10;0.10;;;;;;;21.27;44.04;101049.13;5121047;28;20086;-34
2022/06/05 04:28:49;;;;;;;0.10;0.10;;;;;;;21.26;43.92;101046.69;5117571;28;20070;-33
2022/06/05 04:31:25;;;;;;;0.10;0.10;;;;;;;21.27;44.01;101042.78;5124425;28;20039;-33
2022/06/05 04:33:53;;;;;;;0.10;0.10;;;;;;;21.26;44.35;101050.25;5121486;28;20047;-33
2022/06/05 04:36:19;;;;;;;0.10;0.10;;;;;;;21.27;44.11;101060.22;5117537;28;20597;-33
2022/06/05 04:38:46;;;;;;;0.10;0.10;;;;;;;21.26;44.00;101068.84;5118183;28;20382;-33
2022/06/05 04:41:12;;;;;;;0.10;0.10;;;;;;;21.28;44.05;101080.44;5119982;28;20075;-33
2022/06/05 04:43:38;;;;;;;0.10;0.10;;;;;;;21.27;43.99;101085.16;5119817;28;20062;-33
2022/06/05 04:46:05;;;;;;;0.10;0.10;;;;;;;21.26;44.04;101080.72;5121776;28;20052;-33
2022/06/05 04:48:31;;;;;;;0.10;0.10;;;;;;;21.27;44.09;101084.31;5120860;28;20088;-33
2022/06/05 04:50:56;;;;;;;0.10;0.10;;;;;;;21.27;44.02;101087.91;5117902;28;20103;-33
2022/06/05 04:53:22;;;;;;;0.10;0.10;;;;;;;21.26;43.89;101089.03;5118432;28;20452;-33
2022/06/05 04:55:47;;;;;;;0.10;0.10;;;;;;;21.28;44.21;101089.56;5115894;28;20045;-33
2022/06/05 04:58:13;;;;;;;0.10;0.10;;;;;;;21.27;44.09;101103.72;5118321;27;20043;-34
2022/06/05 05:00:39;;;;;;;0.10;0.10;;;;;;;21.27;44.02;101101.78;5121413;28;20096;-33
2022/06/05 05:03:05;;;;;;;0.10;0.10;;;;;;;21.26;44.01;101108.44;5118801;28;20067;-33
2022/06/05 05:05:33;;;;;;;0.10;0.10;;;;;;;21.27;44.12;101109.25;5121686;28;20050;-34
2022/06/05 05:07:58;;;;;;;0.10;0.10;;;;;;;21.27;44.17;101106.50;5120730;28;20067;-34
2022/06/05 05:10:24;;;;;;;0.10;0.10;;;;;;;21.27;43.91;101117.56;5119455;28;20052;-34
2022/06/05 05:12:50;;;;;;;0.10;0.10;;;;;;;21.28;44.12;101119.22;5117411;28;20046;-33
2022/06/05 05:15:15;;;;;;;0.10;0.10;;;;;;;21.27;44.06;101114.78;5120607;28;20054;-34
2022/06/05 05:17:41;;;;;;;0.10;0.10;;;;;;;21.27;43.99;101126.69;5115015;27;20051;-34
2022/06/05 05:20:07;;;;;;;0.10;0.10;;;;;;;21.28;44.20;101119.22;5121332;28;20130;-34
2022/06/05 05:22:37;;;;;;;0.10;0.10;;;;;;;21.28;44.03;101116.44;5118841;28;20077;-33
2022/06/05 05:25:05;;;;;;;0.10;0.10;;;;;;;21.27;43.84;101112.84;5121718;28;20097;-33
2022/06/05 05:27:32;;;;;;;0.10;0.10;;;;;;;21.26;44.17;101116.75;5119222;28;20086;-33
2022/06/05 05:29:57;;;;;;;0.10;0.10;;;;;;;21.26;44.00;101108.44;5122441;28;20185;-34
2022/06/05 05:32:23;;;;;;;0.10;0.10;;;;;;;21.28;44.14;101110.91;5116889;28;20740;-34
2022/06/05 05:34:49;;;;;;;0.10;0.10;;;;;;;21.26;44.20;101107.63;5117238;28;20048;-33
2022/06/05 05:37:14;;;;;;;0.10;0.10;;;;;;;21.26;44.03;101097.34;5119081;28;20039;-33
2022/06/05 05:42:25;;;;;;;0.10;0.10;;;;;;;21.26;44.09;101091.81;5097065;28;20036;-33
2022/06/05 05:44:51;;;;;;;0.10;0.10;;;;;;;21.27;44.16;101095.41;5120013;28;20066;-33
2022/06/05 05:47:20;;;;;;;0.10;0.10;;;;;;;21.27;43.92;101095.41;5118975;28;20131;-33
2022/06/05 05:49:46;;;;;;;0.10;0.10;;;;;;;21.27;44.03;101089.88;5119700;28;20078;-33
2022/06/05 05:52:12;;;;;;;0.10;0.10;;;;;;;21.26;44.18;101094.59;5124054;28;20047;-33
2022/06/05 05:54:38;;;;;;;0.10;0.10;;;;;;;21.26;43.97;101089.03;5098093;28;20069;-33
2022/06/05 05:57:05;;;;;;;0.10;0.10;;;;;;;21.25;44.14;101076.31;5122479;28;20470;-33
2022/06/05 05:59:31;;;;;;;0.10;0.10;;;;;;;21.25;43.96;101062.47;5116782;28;20124;-33
2022/06/05 06:01:56;;;;;;;0.10;0.10;;;;;;;21.26;44.21;101069.66;5117155;28;20448;-33
2022/06/05 06:04:22;;;;;;;0.10;0.10;;;;;;;21.26;44.03;101055.81;5116231;28;20069;-33
2022/06/05 06:06:49;;;;;;;0.10;0.10;;;;;;;21.25;43.98;101048.63;5100000;28;20126;-34
2022/06/05 06:09:16;;;;;;;0.10;0.10;;;;;;;21.25;44.09;101043.09;5101746;28;20077;-33
2022/06/05 06:11:42;;;;;;;0.10;0.10;;;;;;;21.27;44.01;101040.00;5117465;28;20511;-33
2022/06/05 06:14:08;;;;;;;0.13;0.13;;;;;;;21.25;44.35;101039.50;5113414;28;20051;-34
2022/06/05 06:16:34;;;;;;;0.10;0.10;;;;;;;21.26;44.13;101039.19;5117312;27;20481;-33
2022/06/05 06:18:59;;;;;;;0.10;0.10;;;;;;;21.26;43.98;101035.59;5117781;28;20055;-33
2022/06/05 06:21:25;;;;;;;0.10;0.10;;;;;;;21.26;44.02;101032.81;5115844;28;20042;-33
2022/06/05 06:23:58;;;;;;;0.10;0.10;;;;;;;21.25;44.19;101029.22;5116715;28;20085;-33
2022/06/05 06:26:23;;;;;;;0.10;0.10;;;;;;;21.25;44.11;101018.16;5116622;28;20101;-33
2022/06/05 06:28:49;;;;;;;0.10;0.10;;;;;;;21.26;44.01;101018.97;5117053;28;20065;-33
2022/06/05 06:31:16;;;;;;;0.10;0.10;;;;;;;21.25;44.10;101015.38;5122298;28;20122;-33
2022/06/05 06:33:42;;;;;;;0.10;0.10;;;;;;;21.26;43.92;101005.94;5115966;28;20075;-33
2022/06/05 06:36:11;;;;;;;0.20;0.20;;;;;;;21.26;43.93;101005.13;5118691;28;20048;-33
2022/06/05 06:38:56;;;;;;;0.10;0.10;;;;;;;21.25;44.09;100996.00;5104143;28;20104;-33
2022/06/05 06:41:22;;;;;;;0.10;0.10;;;;;;;21.24;43.90;100994.34;5118245;28;20036;-33
2022/06/05 06:43:48;;;;;;;0.10;0.10;;;;;;;21.25;44.03;100995.16;5115072;28;20047;-33
2022/06/05 06:46:15;;;;;;;0.10;0.10;;;;;;;21.25;44.12;100998.75;5117903;28;20044;-34
2022/06/05 06:48:41;;;;;;;0.10;0.10;;;;;;;21.24;43.97;100991.59;5116558;28;20047;-33
2022/06/05 06:51:08;;;;;;;0.10;0.10;;;;;;;21.25;44.10;100978.56;5123186;28;20039;-34
2022/06/05 06:53:34;;;;;;;0.10;0.10;;;;;;;21.25;44.12;100976.59;5116606;28;20079;-33
2022/06/05 06:56:06;;;;;;;0.20;0.20;;;;;;;21.25;43.98;100965.53;5116396;28;20097;-33
2022/06/05 06:58:32;;;;;;;0.10;0.10;;;;;;;21.26;44.03;100958.03;5114176;28;20078;-33
2022/06/05 07:00:58;;;;;;;0.10;0.10;;;;;;;21.24;44.05;100954.72;5114303;28;20043;-33
2022/06/05 07:03:23;;;;;;;0.10;0.10;;;;;;;21.25;44.10;100957.22;5120250;28;20484;-34
2022/06/05 07:05:49;;;;;;;0.10;0.10;;;;;;;21.25;44.14;100957.22;5117001;28;20077;-34
2022/06/05 07:08:20;;;;;;;0.10;0.10;;;;;;;21.26;44.03;100963.56;5115638;28;20128;-33
2022/06/05 07:10:46;;;;;;;0.10;0.10;;;;;;;21.25;43.99;100950.84;5118796;28;20043;-33
2022/06/05 07:13:12;;;;;;;0.10;0.10;;;;;;;21.25;43.97;100946.13;5119191;28;20043;-33
2022/06/05 07:15:38;;;;;;;0.10;0.10;;;;;;;21.25;44.14;100942.56;5118726;28;20130;-33
2022/06/05 07:18:06;;;;;;;0.10;0.10;;;;;;;21.25;44.18;100929.53;5121037;28;20070;-33
2022/06/05 07:20:36;;;;;;;0.10;0.10;;;;;;;21.25;43.92;100935.06;5116816;28;20071;-33
2022/06/05 07:23:03;;;;;;;0.10;0.10;;;;;;;21.25;44.14;100931.47;5100725;28;20082;-33
2022/06/05 07:25:29;;;;;;;0.10;0.10;;;;;;;21.24;44.08;100940.88;5118276;28;20047;-33
2022/06/05 07:27:55;;;;;;;0.10;0.10;;;;;;;21.25;44.05;100946.13;5125167;28;20543;-33
2022/06/05 07:30:21;;;;;;;0.10;0.10;;;;;;;21.25;44.07;100943.38;5119829;28;20036;-34
2022/06/05 07:32:47;;;;;;;0.10;0.10;;;;;;;21.25;44.02;100940.59;5123506;28;20140;-33
2022/06/05 07:35:14;;;;;;;0.10;0.10;;;;;;;21.25;44.07;100934.25;5121314;28;20378;-33
2022/06/05 07:37:40;;;;;;;0.10;0.10;;;;;;;21.25;44.10;100939.78;5119601;28;20093;-33
2022/06/05 07:40:26;;;;;;;0.10;0.10;;;;;;;21.24;44.00;100933.41;5109866;28;20046;-33
2022/06/05 07:42:51;;;;;;;0.10;0.10;;;;;;;21.25;44.21;100937.81;5119015;28;20051;-33
2022/06/05 07:45:18;;;;;;;0.10;0.10;;;;;;;21.24;44.20;100932.56;5124357;28;20049;-33
2022/06/05 07:47:45;;;;;;;0.10;0.10;;;;;;;21.25;44.08;100928.69;5120900;28;20474;-33
2022/06/05 07:50:12;;;;;;;0.10;0.10;;;;;;;21.25;44.18;100932.28;5120900;28;20062;-33
2022/06/05 07:55:24;;;;;;;0.10;0.10;;;;;;;21.25;44.14;100932.28;5103524;28;20089;-33
2022/06/05 07:57:50;;;;;;;0.10;0.10;;;;;;;21.26;44.19;100925.63;5121898;28;20181;-33
2022/06/05 08:00:16;;;;;;;0.10;0.10;;;;;;;21.25;43.97;100935.06;5119870;28;20052;-33
2022/06/05 08:02:42;;;;;;;0.10;0.10;;;;;;;21.25;43.96;100934.25;5112038;28;20083;-33
2022/06/05 08:05:09;;;;;;;0.10;0.10;;;;;;;21.25;43.98;100935.06;5111377;28;20088;-33
2022/06/05 08:07:34;;;;;;;0.10;0.10;;;;;;;21.25;44.06;100937.81;5101528;28;20478;-33
2022/06/05 08:10:01;;;;;;;0.10;0.10;;;;;;;21.25;44.12;100940.59;5120918;28;20276;-33
2022/06/05 08:12:31;;;;;;;0.10;0.10;;;;;;;21.25;44.04;100942.56;5123818;28;20067;-33
2022/06/05 08:14:57;;;;;;;0.10;0.10;;;;;;;21.25;44.08;100942.56;5120537;28;20051;-32
2022/06/05 08:17:27;;;;;;;0.10;0.10;;;;;;;21.26;44.20;100941.41;5103202;28;20069;-32
2022/06/05 08:19:53;;;;;;;0.10;0.10;;;;;;;21.25;44.18;100937.00;5101535;28;20083;-33
2022/06/05 08:22:20;;;;;;;0.10;0.10;;;;;;;21.25;44.06;100935.06;5121105;28;20067;-32
2022/06/05 08:24:47;;;;;;;0.10;0.10;;;;;;;21.25;44.05;100937.81;5120216;28;20047;-33
2022/06/05 08:27:17;;;;;;;0.10;0.10;;;;;;;21.25;43.98;100939.78;5116140;28;20386;-32
2022/06/05 08:29:43;;;;;;;0.10;0.10;;;;;;;21.24;44.11;100938.97;5120005;28;20181;-33
2022/06/05 08:32:10;;;;;;;0.10;0.10;;;;;;;21.25;44.00;100948.91;5123807;28;20470;-33
2022/06/05 08:34:36;;;;;;;0.10;0.10;;;;;;;21.26;43.94;100946.97;5119794;28;20086;-32
2022/06/05 08:42:59;;;;;;;0.10;0.10;;;;;;;21.25;44.06;100939.78;5090070;28;20497;-33
2022/06/05 08:45:39;;;;;;;0.10;0.10;;;;;;;21.25;43.96;100940.59;5121937;28;20039;-33
2022/06/05 08:48:10;;;;;;;0.10;0.10;;;;;;;21.25;44.04;100934.25;5117369;28;20039;-33
2022/06/05 08:50:45;;;;;;;0.10;0.10;;;;;;;21.25;44.02;100934.25;5104324;28;20078;-33
2022/06/05 08:53:50;;;;;;;0.10;0.10;;;;;;;21.25;44.02;100937.00;5118389;28;20060;-32
2022/06/05 08:56:29;;;;;;;0.10;0.10;;;;;;;21.25;44.14;100939.78;5101620;28;20050;-33
2022/06/05 08:59:00;;;;;;;0.10;0.10;;;;;;;21.25;44.23;100937.00;5119138;28;20449;-33
2022/06/05 09:01:35;;;;;;;0.10;0.10;;;;;;;21.25;44.15;100937.00;5123678;28;20067;-32
2022/06/05 09:04:16;;;;;;;0.10;0.10;;;;;;;21.24;44.16;100927.88;5117447;28;20088;-33
2022/06/05 09:06:47;;;;;;;0.20;0.20;;;;;;;21.24;44.06;100932.56;5112038;28;20502;-34
2022/06/05 09:09:19;;;;;;;0.10;0.10;;;;;;;21.25;44.15;100932.28;5117420;28;20077;-34
2022/06/05 09:11:52;;;;;;;0.10;0.10;;;;;;;21.25;44.24;100923.16;5122901;28;20071;-34
2022/06/05 09:14:39;;;;;;;0.10;0.10;;;;;;;21.25;44.07;100925.94;5097896;28;20130;-33
2022/06/05 09:17:11;;;;;;;0.10;0.10;;;;;;;21.25;44.02;100931.47;5093605;28;20063;-33
2022/06/05 09:19:37;;;;;;;0.10;0.10;;;;;;;21.24;44.02;100922.34;5096991;28;20071;-33
2022/06/05 09:22:11;;;;;;;0.10;0.10;;;;;;;21.25;44.18;100925.94;5101780;28;20544;-33
2022/06/05 09:24:55;;;;;;;0.10;0.10;;;;;;;21.24;44.14;100929.78;5101105;28;20046;-33
2022/06/05 09:27:39;;;;;;;0.10;0.10;;;;;;;21.24;44.01;100932.56;5119558;28;20097;-33
2022/06/05 09:30:10;;;;;;;0.10;0.10;;;;;;;21.24;44.03;100932.56;5119301;28;20078;-33
2022/06/05 09:33:02;;;;;;;0.10;0.10;;;;;;;21.24;44.00;100947.25;5115691;28;20304;-33
2022/06/05 09:35:35;;;;;;;0.10;0.10;;;;;;;21.25;44.30;100956.41;5114944;28;20067;-34
2022/06/05 09:38:06;;;;;;;0.10;0.10;;;;;;;21.25;44.10;100953.63;5118338;28;20473;-34
2022/06/05 09:40:39;;;;;;;0.10;0.10;;;;;;;21.24;44.24;100950.03;5124053;28;20439;-33
2022/06/05 09:43:35;;;;;;;0.10;0.10;;;;;;;21.25;44.13;100950.84;5086560;28;20138;-33
2022/06/05 09:46:16;;;;;;;0.10;0.10;;;;;;;21.25;44.17;100960.00;5101725;28;20078;-34
2022/06/05 09:49:02;;;;;;;0.10;0.10;;;;;;;21.24;44.22;100955.56;5116282;28;20092;-34
2022/06/05 09:51:28;;;;;;;0.10;0.10;;;;;;;21.24;44.12;100949.19;5116187;28;20078;-34
2022/06/05 09:54:11;;;;;;;0.10;0.10;;;;;;;21.24;44.21;100950.03;5118331;28;20074;-34
2022/06/05 09:59:53;;;;;;;0.10;0.10;;;;;;;21.24;44.17;100946.41;5104742;28;20156;-34
2022/06/05 10:02:21;;;;;;;0.10;0.10;;;;;;;21.24;44.06;100950.03;5120322;28;20520;-33
2022/06/05 10:04:48;;;;;;;0.10;0.10;;;;;;;21.25;44.03;100942.56;5115082;28;20405;-33
2022/06/05 10:07:39;;;;;;;0.10;0.10;;;;;;;21.25;44.30;100942.56;5101987;28;20047;-33
2022/06/05 10:10:17;;;;;;;0.10;0.10;;;;;;;21.24;44.27;100941.72;5119446;28;20086;-33
2022/06/05 10:12:47;;;;;;;0.10;0.10;;;;;;;21.24;44.32;100932.56;5118386;28;20492;-33
2022/06/05 10:15:23;;;;;;;0.10;0.10;;;;;;;21.24;44.19;100930.66;5103780;28;22026;-34
2022/06/05 10:17:56;;;;;;;0.10;0.10;;;;;;;21.24;44.22;100929.78;5120571;27;20500;-33
2022/06/05 10:20:45;;;;;;;0.10;0.10;;;;;;;21.24;44.01;100927.03;5117941;28;20490;-34
2022/06/05 10:23:21;;;;;;;0.10;0.10;;;;;;;21.24;44.19;100924.25;5103026;28;20514;-33
2022/06/05 10:26:02;;;;;;;0.10;0.10;;;;;;;21.25;44.08;100920.38;5118624;28;20513;-33
2022/06/05 10:28:30;;;;;;;0.10;0.10;;;;;;;21.25;44.18;100923.16;5115195;28;20489;-33
2022/06/05 10:30:59;;;;;;;0.10;0.10;;;;;;;21.24;44.35;100922.34;5119246;28;20073;-33
2022/06/05 10:34:05;;;;;;;0.10;0.10;;;;;;;21.25;44.14;100917.63;5118275;28;20385;-33
2022/06/05 10:36:50;;;;;;;0.10;0.10;;;;;;;21.25;44.20;100912.09;5093318;28;20082;-33
2022/06/05 10:39:26;;;;;;;0.10;0.10;;;;;;;21.24;44.28;100904.88;5120800;28;20493;-33
2022/06/05 10:44:36;;;;;;;0.10;0.10;;;;;;;21.24;44.19;100897.41;5171492;27;20121;-33
2022/06/05 10:47:11;;;;;;;0.10;0.10;;;;;;;21.25;44.04;100898.22;5149346;27;20051;-33
2022/06/05 10:49:45;;;;;;;0.10;0.10;;;;;;;21.24;44.17;100900.19;5158537;27;20538;-33
2022/06/05 10:52:22;;;;;;;0.10;0.10;;;;;;;21.25;44.06;100898.22;5159468;27;20457;-33
2022/06/05 10:54:57;;;;;;;0.10;0.10;;;;;;;21.25;44.35;100901.00;5158115;27;20085;-33
2022/06/05 10:57:28;;;;;;;0.10;0.10;;;;;;;21.24;44.19;100899.31;5158118;27;20051;-34
2022/06/05 11:00:14;;;;;;;0.10;0.10;;;;;;;21.24;44.14;100891.88;5159840;27;20066;-34
2022/06/05 11:02:50;;;;;;;0.10;0.10;;;;;;;21.24;44.22;100894.63;5153799;27;20453;-34
2022/06/05 11:05:51;;;;;;;0.10;0.10;;;;;;;21.24;44.15;100889.09;5136075;27;20047;-33
2022/06/05 11:08:57;;;;;;;0.10;0.10;;;;;;;21.24;44.16;100877.16;5124792;27;20085;-33
2022/06/05 11:14:29;;;;;;;0.10;0.10;;;;;;;21.23;44.12;100876.34;5130163;27;20333;-33
2022/06/05 11:17:19;;;;;;;0.10;0.10;;;;;;;21.25;44.19;100878.84;5155226;27;20172;-33
2022/06/05 11:22:29;;;;;;;0.10;0.10;;;;;;;21.23;44.07;100865.28;5160121;27;20198;-33
2022/06/05 11:25:09;;;;;;;0.10;0.10;;;;;;;21.23;44.13;100859.72;5138695;27;20098;-33
2022/06/05 11:27:59;;;;;;;0.10;0.10;;;;;;;21.23;44.26;100843.13;5156386;27;20043;-33
2022/06/05 11:33:23;;;;;;;0.10;0.10;;;;;;;21.25;44.32;100842.84;5171167;27;20859;-33
2022/06/05 11:36:19;;;;;;;0.10;0.10;;;;;;;21.24;44.14;100841.16;5151183;27;20071;-33
2022/06/05 11:42:30;;;;;;;0.10;0.10;;;;;;;21.23;44.19;100826.50;5166300;27;20582;-33
2022/06/05 11:47:54;;;;;;;0.10;0.10;;;;;;;21.23;44.29;100812.66;5175804;27;20115;-34
2022/06/05 11:53:20;;;;;;;0.10;0.10;;;;;;;21.23;44.25;100793.25;5170094;27;20201;-33
2022/06/05 11:55:54;;;;;;;0.10;0.10;;;;;;;21.23;44.31;100779.41;5137565;27;20085;-33
2022/06/05 11:58:33;;;;;;;0.10;0.10;;;;;;;21.24;44.08;100775.53;5131782;27;20054;-34
2022/06/05 12:01:02;;;;;;;0.20;0.20;;;;;;;21.23;44.26;100762.78;5143379;27;20082;-34
2022/06/05 12:03:37;;;;;;;0.20;0.20;;;;;;;21.24;44.29;100771.94;5155544;27;20133;-34
2022/06/05 12:06:13;;;;;;;0.20;0.20;;;;;;;21.24;44.25;100772.78;5139424;27;20043;-34
2022/06/05 12:08:45;;;;;;;0.10;0.10;;;;;;;21.25;44.30;100777.19;5153289;27;20077;-33
2022/06/05 12:11:17;;;;;;;0.10;0.10;;;;;;;21.24;44.41;100783.00;5136502;27;20114;-33
2022/06/05 12:14:09;;;;;;;0.10;0.10;;;;;;;21.24;44.30;100777.47;5153868;27;20094;-33
2022/06/05 12:16:43;;;;;;;0.20;0.20;;;;;;;21.24;44.30;100774.69;5137488;27;20085;-33
2022/06/05 12:19:17;;;;;;;0.10;0.10;;;;;;;21.22;44.28;100777.78;5150654;27;20047;-33
2022/06/05 12:21:54;;;;;;;0.10;0.10;;;;;;;21.24;44.30;100764.47;5153621;27;20138;-34
2022/06/05 12:24:25;;;;;;;0.10;0.10;;;;;;;21.23;44.34;100762.78;5140194;27;20085;-34